sensor_id;sensor_type;location;lat;lon;timestamp;P1;durP1;ratioP1;P2;durP2;ratioP2
75781;SDS011;64400;44.762;37.698;2023-09-19T05:05:16;8.50;;;2.63;;
75781;SDS011;64400;44.762;37.698;2023-09-19T05:07:47;7.60;;;2.60;;
75781;SDS011;64400;44.762;37.698;2023-09-19T05:10:15;9.63;;;2.63;;
75781;SDS011;64400;44.762;37.698;2023-09-19T05:12:46;5.50;;;2.20;;
75781;SDS011;64400;44.762;37.698;2023-09-19T05:15:18;7.07;;;2.30;;
75781;SDS011;64400;44.762;37.698;2023-09-19T05:17:49;4.45;;;2.13;;
75781;SDS011;64400;44.762;37.698;2023-09-19T05:20:23;7.68;;;2.42;;
75781;SDS011;64400;44.762;37.698;2023-09-19T05:23:03;4.82;;;2.13;;
75781;SDS011;64400;44.762;37.698;2023-09-19T05:25:40;5.85;;;1.98;;
75781;SDS011;64400;44.762;37.698;2023-09-19T05:28:09;7.97;;;2.30;;
75781;SDS011;64400;44.762;37.698;2023-09-19T05:30:39;6.63;;;2.13;;
75781;SDS011;64400;44.762;37.698;2023-09-19T05:33:07;10.05;;;2.38;;
75781;SDS011;64400;44.762;37.698;2023-09-19T05:35:35;9.43;;;2.47;;
75781;SDS011;64400;44.762;37.698;2023-09-19T05:38:09;7.35;;;2.00;;
75781;SDS011;64400;44.762;37.698;2023-09-19T05:40:39;4.63;;;2.10;;
75781;SDS011;64400;44.762;37.698;2023-09-19T05:43:09;5.80;;;2.22;;
75781;SDS011;64400;44.762;37.698;2023-09-19T05:45:38;4.97;;;2.13;;
75781;SDS011;64400;44.762;37.698;2023-09-19T05:48:10;6.03;;;2.10;;
75781;SDS011;64400;44.762;37.698;2023-09-19T05:50:43;6.53;;;2.10;;
75781;SDS011;64400;44.762;37.698;2023-09-19T05:53:14;6.95;;;1.85;;
75781;SDS011;64400;44.762;37.698;2023-09-19T05:55:43;5.75;;;2.25;;
75781;SDS011;64400;44.762;37.698;2023-09-19T05:58:11;6.10;;;2.50;;
75781;SDS011;64400;44.762;37.698;2023-09-19T06:00:42;8.00;;;2.40;;
75781;SDS011;64400;44.762;37.698;2023-09-19T06:03:12;4.38;;;2.20;;
75781;SDS011;64400;44.762;37.698;2023-09-19T06:05:40;6.93;;;2.30;;
75781;SDS011;64400;44.762;37.698;2023-09-19T06:08:12;6.82;;;2.20;;
75781;SDS011;64400;44.762;37.698;2023-09-19T06:10:40;4.82;;;2.22;;
75781;SDS011;64400;44.762;37.698;2023-09-19T06:13:08;7.07;;;2.70;;
75781;SDS011;64400;44.762;37.698;2023-09-19T06:15:38;5.47;;;2.33;;
75781;SDS011;64400;44.762;37.698;2023-09-19T06:18:10;5.80;;;2.30;;
75781;SDS011;64400;44.762;37.698;2023-09-19T06:20:42;5.32;;;2.30;;
75781;SDS011;64400;44.762;37.698;2023-09-19T06:23:12;5.28;;;2.30;;
75781;SDS011;64400;44.762;37.698;2023-09-19T06:25:41;3.95;;;2.30;;
75781;SDS011;64400;44.762;37.698;2023-09-19T06:28:10;5.88;;;2.55;;
75781;SDS011;64400;44.762;37.698;2023-09-19T06:30:42;5.88;;;2.22;;
75781;SDS011;64400;44.762;37.698;2023-09-19T06:33:10;6.88;;;2.45;;
75781;SDS011;64400;44.762;37.698;2023-09-19T06:35:43;6.63;;;2.38;;
75781;SDS011;64400;44.762;37.698;2023-09-19T06:38:15;5.43;;;2.22;;
75781;SDS011;64400;44.762;37.698;2023-09-19T06:40:43;6.13;;;2.40;;
75781;SDS011;64400;44.762;37.698;2023-09-19T06:43:11;9.50;;;2.60;;
75781;SDS011;64400;44.762;37.698;2023-09-19T06:45:39;5.07;;;2.20;;
75781;SDS011;64400;44.762;37.698;2023-09-19T06:48:07;5.93;;;2.45;;
75781;SDS011;64400;44.762;37.698;2023-09-19T06:50:37;5.60;;;2.13;;
75781;SDS011;64400;44.762;37.698;2023-09-19T06:53:06;5.03;;;2.00;;
75781;SDS011;64400;44.762;37.698;2023-09-19T06:55:33;7.07;;;2.15;;
75781;SDS011;64400;44.762;37.698;2023-09-19T06:58:01;6.50;;;2.33;;
75781;SDS011;64400;44.762;37.698;2023-09-19T07:00:30;6.97;;;2.45;;
75781;SDS011;64400;44.762;37.698;2023-09-19T07:05:40;6.65;;;2.30;;
75781;SDS011;64400;44.762;37.698;2023-09-19T07:08:10;9.45;;;2.20;;
75781;SDS011;64400;44.762;37.698;2023-09-19T07:10:40;7.82;;;2.47;;
75781;SDS011;64400;44.762;37.698;2023-09-19T07:13:16;6.43;;;2.70;;
75781;SDS011;64400;44.762;37.698;2023-09-19T07:15:45;5.85;;;2.80;;
75781;SDS011;64400;44.762;37.698;2023-09-19T07:18:17;7.55;;;2.95;;
75781;SDS011;64400;44.762;37.698;2023-09-19T07:20:46;10.00;;;2.78;;
75781;SDS011;64400;44.762;37.698;2023-09-19T07:23:21;9.45;;;3.00;;
75781;SDS011;64400;44.762;37.698;2023-09-19T07:25:50;7.97;;;2.95;;
75781;SDS011;64400;44.762;37.698;2023-09-19T07:28:18;10.90;;;3.10;;
75781;SDS011;64400;44.762;37.698;2023-09-19T07:30:46;9.45;;;3.25;;
75781;SDS011;64400;44.762;37.698;2023-09-19T07:33:14;11.27;;;2.80;;
75781;SDS011;64400;44.762;37.698;2023-09-19T07:35:45;9.55;;;2.50;;
75781;SDS011;64400;44.762;37.698;2023-09-19T07:38:14;7.30;;;2.65;;
75781;SDS011;64400;44.762;37.698;2023-09-19T07:40:42;7.97;;;2.60;;
75781;SDS011;64400;44.762;37.698;2023-09-19T07:43:11;7.28;;;2.45;;
75781;SDS011;64400;44.762;37.698;2023-09-19T07:45:39;10.60;;;2.70;;
75781;SDS011;64400;44.762;37.698;2023-09-19T07:48:07;8.07;;;2.40;;
75781;SDS011;64400;44.762;37.698;2023-09-19T07:50:42;8.20;;;2.90;;
75781;SDS011;64400;44.762;37.698;2023-09-19T07:53:11;11.75;;;2.88;;
75781;SDS011;64400;44.762;37.698;2023-09-19T07:55:41;13.63;;;3.10;;
75781;SDS011;64400;44.762;37.698;2023-09-19T07:58:09;16.58;;;2.75;;
75781;SDS011;64400;44.762;37.698;2023-09-19T08:00:38;11.40;;;2.75;;
75781;SDS011;64400;44.762;37.698;2023-09-19T08:03:06;6.53;;;2.70;;
75781;SDS011;64400;44.762;37.698;2023-09-19T08:05:44;9.40;;;2.50;;
75781;SDS011;64400;44.762;37.698;2023-09-19T08:08:13;9.60;;;2.67;;
75781;SDS011;64400;44.762;37.698;2023-09-19T08:10:42;12.02;;;2.85;;
75781;SDS011;64400;44.762;37.698;2023-09-19T08:13:14;9.57;;;2.80;;
75781;SDS011;64400;44.762;37.698;2023-09-19T08:15:44;9.10;;;2.72;;
75781;SDS011;64400;44.762;37.698;2023-09-19T08:18:14;7.60;;;3.00;;
75781;SDS011;64400;44.762;37.698;2023-09-19T08:20:48;6.68;;;2.33;;
75781;SDS011;64400;44.762;37.698;2023-09-19T08:23:18;14.27;;;2.97;;
75781;SDS011;64400;44.762;37.698;2023-09-19T08:25:48;9.38;;;2.50;;
75781;SDS011;64400;44.762;37.698;2023-09-19T08:28:16;11.63;;;2.67;;
75781;SDS011;64400;44.762;37.698;2023-09-19T08:30:52;7.68;;;2.47;;
75781;SDS011;64400;44.762;37.698;2023-09-19T08:33:22;7.97;;;2.70;;
75781;SDS011;64400;44.762;37.698;2023-09-19T08:35:50;10.38;;;2.78;;
75781;SDS011;64400;44.762;37.698;2023-09-19T08:38:18;8.73;;;2.80;;
75781;SDS011;64400;44.762;37.698;2023-09-19T08:40:47;9.45;;;2.78;;
75781;SDS011;64400;44.762;37.698;2023-09-19T08:43:15;5.15;;;2.35;;
75781;SDS011;64400;44.762;37.698;2023-09-19T08:45:43;7.57;;;2.70;;
75781;SDS011;64400;44.762;37.698;2023-09-19T08:51:07;10.80;;;2.90;;
75781;SDS011;64400;44.762;37.698;2023-09-19T08:56:53;7.47;;;2.17;;
75781;SDS011;64400;44.762;37.698;2023-09-19T08:59:22;8.88;;;2.60;;
75781;SDS011;64400;44.762;37.698;2023-09-19T09:01:56;10.65;;;2.30;;
75781;SDS011;64400;44.762;37.698;2023-09-19T09:04:26;11.07;;;2.50;;
75781;SDS011;64400;44.762;37.698;2023-09-19T09:06:54;12.95;;;2.63;;
75781;SDS011;64400;44.762;37.698;2023-09-19T09:09:23;11.13;;;2.40;;
75781;SDS011;64400;44.762;37.698;2023-09-19T09:11:52;9.95;;;2.25;;
75781;SDS011;64400;44.762;37.698;2023-09-19T09:14:20;7.75;;;2.63;;
75781;SDS011;64400;44.762;37.698;2023-09-19T09:16:49;10.02;;;2.20;;
75781;SDS011;64400;44.762;37.698;2023-09-19T09:19:25;8.05;;;2.10;;
75781;SDS011;64400;44.762;37.698;2023-09-19T09:21:54;9.07;;;2.00;;
75781;SDS011;64400;44.762;37.698;2023-09-19T09:24:32;8.05;;;2.97;;
75781;SDS011;64400;44.762;37.698;2023-09-19T09:27:03;6.05;;;2.53;;
75781;SDS011;64400;44.762;37.698;2023-09-19T09:32:26;8.65;;;2.30;;
75781;SDS011;64400;44.762;37.698;2023-09-19T09:35:06;6.57;;;1.92;;
75781;SDS011;64400;44.762;37.698;2023-09-19T09:37:38;5.28;;;1.92;;
75781;SDS011;64400;44.762;37.698;2023-09-19T09:40:06;6.75;;;2.03;;
75781;SDS011;64400;44.762;37.698;2023-09-19T09:42:43;5.25;;;1.90;;
75781;SDS011;64400;44.762;37.698;2023-09-19T09:45:15;10.35;;;2.10;;
75781;SDS011;64400;44.762;37.698;2023-09-19T09:47:56;9.82;;;2.03;;
75781;SDS011;64400;44.762;37.698;2023-09-19T09:50:28;7.78;;;2.10;;
75781;SDS011;64400;44.762;37.698;2023-09-19T09:53:31;5.28;;;2.10;;
75781;SDS011;64400;44.762;37.698;2023-09-19T09:56:07;4.13;;;2.25;;
75781;SDS011;64400;44.762;37.698;2023-09-19T09:58:51;6.82;;;2.55;;
75781;SDS011;64400;44.762;37.698;2023-09-19T10:01:26;4.78;;;1.70;;
75781;SDS011;64400;44.762;37.698;2023-09-19T10:03:58;6.20;;;2.10;;
75781;SDS011;64400;44.762;37.698;2023-09-19T10:06:39;11.55;;;2.40;;
75781;SDS011;64400;44.762;37.698;2023-09-19T10:09:15;4.05;;;2.05;;
75781;SDS011;64400;44.762;37.698;2023-09-19T10:12:07;6.18;;;2.20;;
75781;SDS011;64400;44.762;37.698;2023-09-19T10:14:38;8.57;;;2.10;;
75781;SDS011;64400;44.762;37.698;2023-09-19T10:17:11;6.00;;;2.13;;
75781;SDS011;64400;44.762;37.698;2023-09-19T10:19:45;5.30;;;2.20;;
75781;SDS011;64400;44.762;37.698;2023-09-19T10:22:26;7.85;;;2.03;;
75781;SDS011;64400;44.762;37.698;2023-09-19T10:24:58;4.47;;;2.15;;
75781;SDS011;64400;44.762;37.698;2023-09-19T10:27:30;5.60;;;2.28;;
75781;SDS011;64400;44.762;37.698;2023-09-19T10:30:05;4.82;;;2.17;;
75781;SDS011;64400;44.762;37.698;2023-09-19T10:32:37;6.35;;;2.40;;
75781;SDS011;64400;44.762;37.698;2023-09-19T10:35:08;9.20;;;2.20;;
75781;SDS011;64400;44.762;37.698;2023-09-19T10:37:40;4.65;;;1.88;;
75781;SDS011;64400;44.762;37.698;2023-09-19T10:40:12;6.57;;;2.10;;
75781;SDS011;64400;44.762;37.698;2023-09-19T10:42:43;7.95;;;2.28;;
75781;SDS011;64400;44.762;37.698;2023-09-19T10:45:14;6.65;;;2.30;;
75781;SDS011;64400;44.762;37.698;2023-09-19T10:47:51;8.52;;;2.08;;
75781;SDS011;64400;44.762;37.698;2023-09-19T10:50:20;6.25;;;2.28;;
75781;SDS011;64400;44.762;37.698;2023-09-19T10:52:51;4.15;;;1.98;;
75781;SDS011;64400;44.762;37.698;2023-09-19T10:55:34;5.28;;;2.10;;
75781;SDS011;64400;44.762;37.698;2023-09-19T10:58:05;5.15;;;2.50;;
75781;SDS011;64400;44.762;37.698;2023-09-19T11:00:51;6.20;;;2.15;;
75781;SDS011;64400;44.762;37.698;2023-09-19T11:03:21;7.32;;;2.20;;
75781;SDS011;64400;44.762;37.698;2023-09-19T11:06:11;3.25;;;1.83;;
75781;SDS011;64400;44.762;37.698;2023-09-19T11:08:56;7.07;;;1.85;;
75781;SDS011;64400;44.762;37.698;2023-09-19T11:25:59;8.00;;;2.33;;
75781;SDS011;64400;44.762;37.698;2023-09-19T11:30:46;6.00;;;2.13;;
75781;SDS011;64400;44.762;37.698;2023-09-19T11:36:03;8.30;;;2.30;;
75781;SDS011;64400;44.762;37.698;2023-09-19T11:39:14;8.43;;;2.40;;
75781;SDS011;64400;44.762;37.698;2023-09-19T11:46:28;6.90;;;2.30;;
75781;SDS011;64400;44.762;37.698;2023-09-19T11:49:05;5.03;;;2.10;;
75781;SDS011;64400;44.762;37.698;2023-09-19T11:51:41;4.40;;;2.03;;
75781;SDS011;64400;44.762;37.698;2023-09-19T11:54:12;5.60;;;2.47;;
75781;SDS011;64400;44.762;37.698;2023-09-19T11:56:45;4.60;;;2.25;;
75781;SDS011;64400;44.762;37.698;2023-09-19T11:59:20;4.72;;;2.35;;
75781;SDS011;64400;44.762;37.698;2023-09-19T12:01:52;7.90;;;2.33;;
75781;SDS011;64400;44.762;37.698;2023-09-19T12:04:40;6.07;;;2.50;;
75781;SDS011;64400;44.762;37.698;2023-09-19T12:07:11;5.50;;;2.33;;
75781;SDS011;64400;44.762;37.698;2023-09-19T12:12:20;6.20;;;2.45;;
75781;SDS011;64400;44.762;37.698;2023-09-19T12:14:55;5.82;;;2.60;;
75781;SDS011;64400;44.762;37.698;2023-09-19T12:17:36;7.72;;;2.78;;
75781;SDS011;64400;44.762;37.698;2023-09-19T12:20:06;6.50;;;2.40;;
75781;SDS011;64400;44.762;37.698;2023-09-19T12:22:41;4.82;;;2.25;;
75781;SDS011;64400;44.762;37.698;2023-09-19T12:25:14;5.70;;;2.15;;
75781;SDS011;64400;44.762;37.698;2023-09-19T12:27:46;4.60;;;2.55;;
75781;SDS011;64400;44.762;37.698;2023-09-19T12:30:16;5.60;;;2.45;;
75781;SDS011;64400;44.762;37.698;2023-09-19T12:32:54;4.70;;;2.50;;
75781;SDS011;64400;44.762;37.698;2023-09-19T12:35:29;6.60;;;2.35;;
75781;SDS011;64400;44.762;37.698;2023-09-19T12:38:02;7.32;;;2.67;;
75781;SDS011;64400;44.762;37.698;2023-09-19T12:40:31;5.93;;;2.83;;
75781;SDS011;64400;44.762;37.698;2023-09-19T12:43:01;5.63;;;2.45;;
75781;SDS011;64400;44.762;37.698;2023-09-19T12:45:30;7.03;;;2.22;;
75781;SDS011;64400;44.762;37.698;2023-09-19T12:48:20;12.27;;;2.80;;
75781;SDS011;64400;44.762;37.698;2023-09-19T12:51:09;11.15;;;2.75;;
75781;SDS011;64400;44.762;37.698;2023-09-19T12:53:43;12.20;;;2.80;;
75781;SDS011;64400;44.762;37.698;2023-09-19T12:56:18;6.00;;;2.67;;
75781;SDS011;64400;44.762;37.698;2023-09-19T13:01:23;7.00;;;2.70;;
75781;SDS011;64400;44.762;37.698;2023-09-19T13:06:48;5.75;;;2.70;;
75781;SDS011;64400;44.762;37.698;2023-09-19T13:09:18;10.93;;;2.95;;
75781;SDS011;64400;44.762;37.698;2023-09-19T13:12:02;8.43;;;2.70;;
75781;SDS011;64400;44.762;37.698;2023-09-19T13:14:31;6.05;;;2.60;;
75781;SDS011;64400;44.762;37.698;2023-09-19T13:17:01;9.73;;;2.67;;
75781;SDS011;64400;44.762;37.698;2023-09-19T13:19:47;10.10;;;2.95;;
75781;SDS011;64400;44.762;37.698;2023-09-19T13:25:06;9.23;;;2.53;;
75781;SDS011;64400;44.762;37.698;2023-09-19T13:27:41;10.52;;;2.92;;
75781;SDS011;64400;44.762;37.698;2023-09-19T13:30:12;6.03;;;2.65;;
75781;SDS011;64400;44.762;37.698;2023-09-19T13:32:41;9.63;;;3.05;;
75781;SDS011;64400;44.762;37.698;2023-09-19T13:35:11;5.32;;;2.30;;
75781;SDS011;64400;44.762;37.698;2023-09-19T13:37:40;6.55;;;2.58;;
75781;SDS011;64400;44.762;37.698;2023-09-19T13:40:10;5.18;;;2.60;;
75781;SDS011;64400;44.762;37.698;2023-09-19T13:42:39;5.07;;;2.33;;
75781;SDS011;64400;44.762;37.698;2023-09-19T13:45:08;7.38;;;2.40;;
75781;SDS011;64400;44.762;37.698;2023-09-19T13:47:40;7.60;;;2.20;;
75781;SDS011;64400;44.762;37.698;2023-09-19T13:50:08;24.65;;;3.88;;
75781;SDS011;64400;44.762;37.698;2023-09-19T13:52:37;12.02;;;2.58;;
75781;SDS011;64400;44.762;37.698;2023-09-19T13:55:05;24.88;;;3.78;;
75781;SDS011;64400;44.762;37.698;2023-09-19T13:57:34;14.10;;;3.55;;
75781;SDS011;64400;44.762;37.698;2023-09-19T14:00:02;16.48;;;3.55;;
75781;SDS011;64400;44.762;37.698;2023-09-19T14:02:38;9.45;;;2.90;;
75781;SDS011;64400;44.762;37.698;2023-09-19T14:05:07;11.07;;;2.95;;
75781;SDS011;64400;44.762;37.698;2023-09-19T14:07:35;16.15;;;3.00;;
75781;SDS011;64400;44.762;37.698;2023-09-19T14:10:04;11.35;;;2.80;;
75781;SDS011;64400;44.762;37.698;2023-09-19T14:12:34;9.40;;;3.13;;
75781;SDS011;64400;44.762;37.698;2023-09-19T14:15:03;10.10;;;2.83;;
75781;SDS011;64400;44.762;37.698;2023-09-19T14:17:32;12.82;;;2.70;;
75781;SDS011;64400;44.762;37.698;2023-09-19T14:20:00;8.25;;;2.63;;
75781;SDS011;64400;44.762;37.698;2023-09-19T14:22:30;10.63;;;2.95;;
75781;SDS011;64400;44.762;37.698;2023-09-19T14:24:58;11.43;;;2.90;;
75781;SDS011;64400;44.762;37.698;2023-09-19T14:27:28;5.97;;;2.42;;
75781;SDS011;64400;44.762;37.698;2023-09-19T14:29:56;9.45;;;2.58;;
75781;SDS011;64400;44.762;37.698;2023-09-19T14:32:24;7.68;;;2.80;;
75781;SDS011;64400;44.762;37.698;2023-09-19T14:34:53;8.88;;;2.55;;
75781;SDS011;64400;44.762;37.698;2023-09-19T14:37:21;6.88;;;2.65;;
75781;SDS011;64400;44.762;37.698;2023-09-19T14:39:49;7.30;;;3.08;;
75781;SDS011;64400;44.762;37.698;2023-09-19T14:42:17;6.40;;;2.58;;
75781;SDS011;64400;44.762;37.698;2023-09-19T14:44:45;6.18;;;2.53;;
75781;SDS011;64400;44.762;37.698;2023-09-19T14:47:15;8.00;;;2.75;;
75781;SDS011;64400;44.762;37.698;2023-09-19T14:49:44;7.07;;;2.53;;
75781;SDS011;64400;44.762;37.698;2023-09-19T14:52:12;3.72;;;2.15;;
75781;SDS011;64400;44.762;37.698;2023-09-19T14:54:43;5.55;;;2.30;;
75781;SDS011;64400;44.762;37.698;2023-09-19T14:57:11;7.50;;;2.58;;
75781;SDS011;64400;44.762;37.698;2023-09-19T14:59:41;8.07;;;2.40;;
75781;SDS011;64400;44.762;37.698;2023-09-19T15:02:09;7.53;;;2.58;;
75781;SDS011;64400;44.762;37.698;2023-09-19T15:04:37;8.65;;;2.72;;
75781;SDS011;64400;44.762;37.698;2023-09-19T15:07:08;7.22;;;2.35;;
75781;SDS011;64400;44.762;37.698;2023-09-19T15:09:36;8.10;;;2.60;;
75781;SDS011;64400;44.762;37.698;2023-09-19T15:12:05;8.25;;;2.78;;
75781;SDS011;64400;44.762;37.698;2023-09-19T15:14:33;5.47;;;2.70;;
75781;SDS011;64400;44.762;37.698;2023-09-19T15:17:01;9.02;;;2.97;;
75781;SDS011;64400;44.762;37.698;2023-09-19T15:19:32;6.95;;;2.50;;
75781;SDS011;64400;44.762;37.698;2023-09-19T15:22:00;5.45;;;2.90;;
75781;SDS011;64400;44.762;37.698;2023-09-19T15:24:28;7.97;;;2.80;;
75781;SDS011;64400;44.762;37.698;2023-09-19T15:26:56;5.00;;;2.53;;
75781;SDS011;64400;44.762;37.698;2023-09-19T15:29:24;7.20;;;2.65;;
75781;SDS011;64400;44.762;37.698;2023-09-19T15:31:54;6.40;;;3.00;;
75781;SDS011;64400;44.762;37.698;2023-09-19T15:34:26;5.15;;;2.50;;
75781;SDS011;64400;44.762;37.698;2023-09-19T15:36:53;5.88;;;2.92;;
75781;SDS011;64400;44.762;37.698;2023-09-19T15:39:21;5.82;;;2.88;;
75781;SDS011;64400;44.762;37.698;2023-09-19T15:41:49;5.13;;;2.72;;
75781;SDS011;64400;44.762;37.698;2023-09-19T15:44:18;8.93;;;3.15;;
75781;SDS011;64400;44.762;37.698;2023-09-19T15:46:47;6.45;;;2.90;;
75781;SDS011;64400;44.762;37.698;2023-09-19T15:49:16;9.57;;;3.17;;
75781;SDS011;64400;44.762;37.698;2023-09-19T15:51:44;6.80;;;3.05;;
75781;SDS011;64400;44.762;37.698;2023-09-19T15:54:13;6.18;;;3.45;;
75781;SDS011;64400;44.762;37.698;2023-09-19T15:56:42;13.27;;;3.72;;
75781;SDS011;64400;44.762;37.698;2023-09-19T15:59:12;9.50;;;3.35;;
75781;SDS011;64400;44.762;37.698;2023-09-19T16:01:41;11.38;;;3.20;;
75781;SDS011;64400;44.762;37.698;2023-09-19T16:04:11;15.63;;;3.90;;
75781;SDS011;64400;44.762;37.698;2023-09-19T16:06:40;12.25;;;3.80;;
75781;SDS011;64400;44.762;37.698;2023-09-19T16:09:09;12.35;;;3.53;;
75781;SDS011;64400;44.762;37.698;2023-09-19T16:11:37;12.25;;;3.33;;
75781;SDS011;64400;44.762;37.698;2023-09-19T16:14:06;15.63;;;4.15;;
75781;SDS011;64400;44.762;37.698;2023-09-19T16:16:34;14.95;;;4.53;;
75781;SDS011;64400;44.762;37.698;2023-09-19T16:19:04;10.23;;;3.90;;
75781;SDS011;64400;44.762;37.698;2023-09-19T16:21:36;15.82;;;3.45;;
75781;SDS011;64400;44.762;37.698;2023-09-19T16:24:05;10.00;;;3.53;;
75781;SDS011;64400;44.762;37.698;2023-09-19T16:26:36;9.27;;;3.60;;
75781;SDS011;64400;44.762;37.698;2023-09-19T16:29:08;10.20;;;3.70;;
75781;SDS011;64400;44.762;37.698;2023-09-19T16:31:37;11.50;;;3.70;;
75781;SDS011;64400;44.762;37.698;2023-09-19T16:34:06;11.23;;;3.33;;
75781;SDS011;64400;44.762;37.698;2023-09-19T16:36:34;9.63;;;4.03;;
75781;SDS011;64400;44.762;37.698;2023-09-19T16:39:03;20.88;;;3.78;;
75781;SDS011;64400;44.762;37.698;2023-09-19T16:41:32;10.40;;;3.83;;
75781;SDS011;64400;44.762;37.698;2023-09-19T16:44:02;9.23;;;3.60;;
75781;SDS011;64400;44.762;37.698;2023-09-19T16:46:37;14.67;;;4.47;;
75781;SDS011;64400;44.762;37.698;2023-09-19T16:49:06;8.27;;;3.67;;
75781;SDS011;64400;44.762;37.698;2023-09-19T16:51:34;15.73;;;3.50;;
75781;SDS011;64400;44.762;37.698;2023-09-19T16:54:02;12.23;;;3.92;;
75781;SDS011;64400;44.762;37.698;2023-09-19T16:56:30;9.77;;;3.72;;
75781;SDS011;64400;44.762;37.698;2023-09-19T16:59:00;14.10;;;3.58;;
75781;SDS011;64400;44.762;37.698;2023-09-19T17:01:31;10.73;;;3.38;;
75781;SDS011;64400;44.762;37.698;2023-09-19T17:04:00;13.23;;;3.90;;
75781;SDS011;64400;44.762;37.698;2023-09-19T17:06:30;15.48;;;3.70;;
75781;SDS011;64400;44.762;37.698;2023-09-19T17:08:58;22.20;;;4.78;;
75781;SDS011;64400;44.762;37.698;2023-09-19T17:11:26;17.30;;;3.83;;
75781;SDS011;64400;44.762;37.698;2023-09-19T17:13:54;11.60;;;3.40;;
75781;SDS011;64400;44.762;37.698;2023-09-19T17:16:24;12.95;;;3.53;;
75781;SDS011;64400;44.762;37.698;2023-09-19T17:18:56;13.43;;;4.28;;
75781;SDS011;64400;44.762;37.698;2023-09-19T17:21:25;12.35;;;4.45;;
75781;SDS011;64400;44.762;37.698;2023-09-19T17:23:54;11.02;;;4.07;;
75781;SDS011;64400;44.762;37.698;2023-09-19T17:26:26;12.93;;;4.25;;
75781;SDS011;64400;44.762;37.698;2023-09-19T17:28:54;11.13;;;4.03;;
75781;SDS011;64400;44.762;37.698;2023-09-19T17:31:23;10.60;;;4.05;;
75781;SDS011;64400;44.762;37.698;2023-09-19T17:33:54;10.45;;;4.53;;
75781;SDS011;64400;44.762;37.698;2023-09-19T17:36:22;13.02;;;4.43;;
75781;SDS011;64400;44.762;37.698;2023-09-19T17:38:53;13.18;;;4.70;;
75781;SDS011;64400;44.762;37.698;2023-09-19T17:41:23;17.02;;;4.97;;
75781;SDS011;64400;44.762;37.698;2023-09-19T17:43:53;17.20;;;5.13;;
75781;SDS011;64400;44.762;37.698;2023-09-19T17:46:22;13.52;;;5.35;;
75781;SDS011;64400;44.762;37.698;2023-09-19T17:48:57;14.00;;;5.10;;
75781;SDS011;64400;44.762;37.698;2023-09-19T17:51:28;11.63;;;5.00;;
75781;SDS011;64400;44.762;37.698;2023-09-19T17:53:56;10.50;;;5.22;;
75781;SDS011;64400;44.762;37.698;2023-09-19T17:56:27;15.00;;;6.05;;
75781;SDS011;64400;44.762;37.698;2023-09-19T17:58:56;12.32;;;5.43;;
75781;SDS011;64400;44.762;37.698;2023-09-19T18:01:25;10.80;;;5.20;;
75781;SDS011;64400;44.762;37.698;2023-09-19T18:03:59;10.50;;;4.97;;
75781;SDS011;64400;44.762;37.698;2023-09-19T18:06:30;13.90;;;5.10;;
75781;SDS011;64400;44.762;37.698;2023-09-19T18:09:01;15.00;;;5.35;;
75781;SDS011;64400;44.762;37.698;2023-09-19T18:11:34;11.93;;;4.70;;
75781;SDS011;64400;44.762;37.698;2023-09-19T18:14:03;11.05;;;5.25;;
75781;SDS011;64400;44.762;37.698;2023-09-19T18:16:31;12.73;;;5.22;;
75781;SDS011;64400;44.762;37.698;2023-09-19T18:18:59;14.70;;;5.28;;
75781;SDS011;64400;44.762;37.698;2023-09-19T18:21:32;9.95;;;4.57;;
75781;SDS011;64400;44.762;37.698;2023-09-19T18:24:00;9.95;;;4.63;;
75781;SDS011;64400;44.762;37.698;2023-09-19T18:26:31;10.05;;;4.22;;
75781;SDS011;64400;44.762;37.698;2023-09-19T18:29:00;11.70;;;4.63;;
75781;SDS011;64400;44.762;37.698;2023-09-19T18:31:31;12.73;;;4.30;;
75781;SDS011;64400;44.762;37.698;2023-09-19T18:34:02;8.15;;;4.25;;
75781;SDS011;64400;44.762;37.698;2023-09-19T18:36:30;10.93;;;4.15;;
75781;SDS011;64400;44.762;37.698;2023-09-19T18:38:59;9.65;;;4.70;;
75781;SDS011;64400;44.762;37.698;2023-09-19T18:41:27;9.45;;;4.30;;
75781;SDS011;64400;44.762;37.698;2023-09-19T18:43:55;9.20;;;4.20;;
75781;SDS011;64400;44.762;37.698;2023-09-19T18:46:25;9.57;;;4.43;;
75781;SDS011;64400;44.762;37.698;2023-09-19T18:48:57;8.00;;;4.20;;
75781;SDS011;64400;44.762;37.698;2023-09-19T18:51:26;7.43;;;3.97;;
75781;SDS011;64400;44.762;37.698;2023-09-19T18:53:54;9.88;;;4.15;;
75781;SDS011;64400;44.762;37.698;2023-09-19T18:56:38;7.93;;;4.00;;
75781;SDS011;64400;44.762;37.698;2023-09-19T18:59:11;8.52;;;3.90;;
75781;SDS011;64400;44.762;37.698;2023-09-19T19:01:42;8.13;;;4.10;;
75781;SDS011;64400;44.762;37.698;2023-09-19T19:04:11;9.30;;;3.80;;
75781;SDS011;64400;44.762;37.698;2023-09-19T19:06:40;8.02;;;3.83;;
75781;SDS011;64400;44.762;37.698;2023-09-19T19:09:08;8.90;;;4.05;;
75781;SDS011;64400;44.762;37.698;2023-09-19T19:11:37;8.45;;;3.92;;
75781;SDS011;64400;44.762;37.698;2023-09-19T19:14:05;7.18;;;3.88;;
75781;SDS011;64400;44.762;37.698;2023-09-19T19:16:34;7.72;;;4.25;;
75781;SDS011;64400;44.762;37.698;2023-09-19T19:19:04;9.18;;;4.00;;
75781;SDS011;64400;44.762;37.698;2023-09-19T19:21:36;7.95;;;3.90;;
75781;SDS011;64400;44.762;37.698;2023-09-19T19:24:05;11.05;;;4.35;;
75781;SDS011;64400;44.762;37.698;2023-09-19T19:26:33;8.20;;;3.88;;
75781;SDS011;64400;44.762;37.698;2023-09-19T19:29:02;8.15;;;4.00;;
75781;SDS011;64400;44.762;37.698;2023-09-19T19:31:31;9.88;;;3.90;;
75781;SDS011;64400;44.762;37.698;2023-09-19T19:34:01;9.40;;;4.45;;
75781;SDS011;64400;44.762;37.698;2023-09-19T19:36:30;8.80;;;3.85;;
75781;SDS011;64400;44.762;37.698;2023-09-19T19:38:59;9.80;;;4.57;;
75781;SDS011;64400;44.762;37.698;2023-09-19T19:41:27;7.68;;;4.57;;
75781;SDS011;64400;44.762;37.698;2023-09-19T19:43:55;7.70;;;4.03;;
75781;SDS011;64400;44.762;37.698;2023-09-19T19:46:23;8.95;;;4.13;;
75781;SDS011;64400;44.762;37.698;2023-09-19T19:48:52;8.93;;;4.10;;
75781;SDS011;64400;44.762;37.698;2023-09-19T19:51:20;7.85;;;4.00;;
75781;SDS011;64400;44.762;37.698;2023-09-19T19:53:48;9.85;;;4.40;;
75781;SDS011;64400;44.762;37.698;2023-09-19T19:56:16;8.88;;;4.07;;
75781;SDS011;64400;44.762;37.698;2023-09-19T19:58:44;7.35;;;4.32;;
75781;SDS011;64400;44.762;37.698;2023-09-19T20:01:13;7.10;;;3.83;;
75781;SDS011;64400;44.762;37.698;2023-09-19T20:03:43;7.40;;;3.88;;
75781;SDS011;64400;44.762;37.698;2023-09-19T20:06:11;7.68;;;3.90;;
75781;SDS011;64400;44.762;37.698;2023-09-19T20:08:40;7.80;;;3.88;;
75781;SDS011;64400;44.762;37.698;2023-09-19T20:11:08;8.50;;;3.90;;
75781;SDS011;64400;44.762;37.698;2023-09-19T20:13:36;9.82;;;4.13;;
75781;SDS011;64400;44.762;37.698;2023-09-19T20:16:10;8.50;;;3.70;;
75781;SDS011;64400;44.762;37.698;2023-09-19T20:18:39;8.10;;;4.05;;
75781;SDS011;64400;44.762;37.698;2023-09-19T20:21:09;7.60;;;4.13;;
75781;SDS011;64400;44.762;37.698;2023-09-19T20:23:41;8.13;;;4.05;;
75781;SDS011;64400;44.762;37.698;2023-09-19T20:26:13;10.02;;;4.10;;
75781;SDS011;64400;44.762;37.698;2023-09-19T20:28:41;8.13;;;3.88;;
75781;SDS011;64400;44.762;37.698;2023-09-19T20:31:10;6.75;;;3.83;;
75781;SDS011;64400;44.762;37.698;2023-09-19T20:33:42;9.30;;;4.25;;
75781;SDS011;64400;44.762;37.698;2023-09-19T20:36:10;7.28;;;4.45;;
75781;SDS011;64400;44.762;37.698;2023-09-19T20:38:41;7.82;;;4.55;;
75781;SDS011;64400;44.762;37.698;2023-09-19T20:41:11;9.20;;;4.47;;
75781;SDS011;64400;44.762;37.698;2023-09-19T20:43:40;9.32;;;4.47;;